Archival Weather

Fukuoka

Fukuoka, Japan (RJFF)

Report from: Tuesday, August 16, 2022 1:30 AM JST
Current time: Sunday, November 27, 2022 6:20 PM JST

Current weather
Weather history
Weather forecast

Temperature29.0°C (84.2°F)
Heat index34.6°C (94.3°F)
Dew point25.0°C (77.0°F)
Winds 8 kts (4.1 m/s, 9.2 mph) Vrb
Winds variableWinds variable from Southeast (140°) to South-Southwest (210°)
Visibility6.2 mi. (10 km)
Clouds Few clouds 3,300 ft. (1,006 m)
Scattered clouds 3,900 ft. (1,189 m)
Ceiling: Broken clouds 4,000 ft. (1,219 m)
Altimeter29.71 in.Hg (1006 mB)
Relative humidity79 %
Density altitude2,275 ft. (693 m)
Remarks Fully automated report
No significant changes expected in the next two hours
Flight conditions Visual Meteorological Conditions
Raw dataRJFF 151630Z AUTO 16008KT 140V210 9999 FEW033 SCT039 BKN040 //////TCU 29/25 Q1006 NOSIG
An error has occurred. This application may no longer respond until reloaded. Reload 🗙